createdAt,value
2017-08-13T00:01:05.515Z,4.80
2017-08-13T00:03:33.838Z,5.90
2017-08-13T00:06:02.145Z,6.70
2017-08-13T00:08:30.703Z,5.47
2017-08-13T00:10:59.024Z,5.30
2017-08-13T00:13:27.393Z,5.53
2017-08-13T00:15:55.702Z,3.83
2017-08-13T00:18:24.026Z,17.30
2017-08-13T00:20:52.363Z,5.47
2017-08-13T00:23:21.759Z,5.23
2017-08-13T00:25:50.060Z,8.93
2017-08-13T00:28:22.941Z,3.63
2017-08-13T00:30:51.230Z,5.60
2017-08-13T00:33:19.526Z,6.47
2017-08-13T00:35:47.849Z,4.80
2017-08-13T00:38:16.162Z,4.27
2017-08-13T00:40:44.459Z,4.80
2017-08-13T00:43:12.781Z,4.73
2017-08-13T00:45:41.078Z,4.27
2017-08-13T00:48:09.393Z,5.93
2017-08-13T00:50:37.734Z,10.70
2017-08-13T00:53:06.063Z,7.70
2017-08-13T00:55:34.372Z,10.43
2017-08-13T00:58:04.268Z,4.30
2017-08-13T01:00:32.604Z,5.27
2017-08-13T01:03:00.929Z,8.07
2017-08-13T01:05:29.215Z,4.13
2017-08-13T01:07:57.552Z,4.10
2017-08-13T01:10:25.859Z,5.83
2017-08-13T01:12:54.189Z,3.07
2017-08-13T01:15:22.525Z,3.20
2017-08-13T01:17:50.874Z,4.00
2017-08-13T01:20:19.178Z,2.60
2017-08-13T01:22:47.518Z,2.43
2017-08-13T01:25:15.813Z,6.57
2017-08-13T01:27:44.147Z,3.20
2017-08-13T01:30:12.486Z,3.10
2017-08-13T01:32:40.800Z,3.00
2017-08-13T01:35:09.144Z,3.60
2017-08-13T01:37:37.452Z,7.50
2017-08-13T01:40:05.760Z,6.27
2017-08-13T01:42:34.081Z,7.87
2017-08-13T01:45:05.440Z,8.47
2017-08-13T01:47:34.544Z,8.93
2017-08-13T01:50:02.853Z,10.07
2017-08-13T01:52:33.768Z,12.80
2017-08-13T01:55:02.112Z,12.87
2017-08-13T01:57:30.422Z,16.67
2017-08-13T01:59:58.832Z,17.17
2017-08-13T02:02:27.174Z,16.47
2017-08-13T02:04:55.477Z,15.50
2017-08-13T02:07:23.786Z,18.80
2017-08-13T02:09:52.126Z,26.17
2017-08-13T02:12:20.593Z,24.23
2017-08-13T02:14:49.067Z,28.07
2017-08-13T02:17:17.409Z,22.90
2017-08-13T02:19:45.746Z,28.53
2017-08-13T02:22:14.057Z,22.80
2017-08-13T02:24:42.402Z,23.33
2017-08-13T02:27:10.743Z,27.70
2017-08-13T02:29:39.857Z,21.37
2017-08-13T02:32:08.933Z,31.90
2017-08-13T02:34:37.249Z,29.60
2017-08-13T02:37:07.149Z,26.10
2017-08-13T02:39:35.493Z,23.70
2017-08-13T02:42:03.825Z,30.37
2017-08-13T02:44:32.132Z,32.83
2017-08-13T02:47:00.446Z,33.63
2017-08-13T02:49:28.789Z,27.93
2017-08-13T02:51:57.105Z,30.23
2017-08-13T02:54:25.443Z,27.73
2017-08-13T02:56:53.906Z,26.90
2017-08-13T02:59:22.217Z,31.63
2017-08-13T03:01:50.553Z,39.20
2017-08-13T03:04:18.856Z,38.43
2017-08-13T03:06:47.161Z,40.93
2017-08-13T03:09:16.265Z,40.03
2017-08-13T03:11:45.369Z,35.07
2017-08-13T03:14:13.679Z,44.00
2017-08-13T03:16:41.997Z,36.10
2017-08-13T03:19:10.343Z,32.17
2017-08-13T03:21:38.652Z,38.40
2017-08-13T03:24:07.304Z,31.93
2017-08-13T03:26:35.644Z,29.03
2017-08-13T03:29:04.002Z,25.60
2017-08-13T03:31:32.993Z,28.80
2017-08-13T03:34:01.294Z,20.37
2017-08-13T03:36:30.825Z,22.60
2017-08-13T03:38:59.916Z,27.03
2017-08-13T03:41:29.256Z,31.57
2017-08-13T03:43:57.568Z,30.50
2017-08-13T03:46:25.916Z,28.37
2017-08-13T03:48:55.008Z,28.33
2017-08-13T03:51:24.101Z,33.97
2017-08-13T03:53:52.452Z,35.43
2017-08-13T03:56:20.775Z,29.23
2017-08-13T03:58:49.080Z,37.70
2017-08-13T04:01:17.427Z,41.53
2017-08-13T04:03:45.765Z,38.23
2017-08-13T04:06:15.162Z,36.77
2017-08-13T04:08:43.510Z,45.83
2017-08-13T04:11:11.819Z,39.00
2017-08-13T04:13:40.653Z,36.80
2017-08-13T04:16:08.957Z,49.33
2017-08-13T04:18:38.066Z,40.80
2017-08-13T04:21:07.164Z,27.23
2017-08-13T04:23:35.501Z,69.17
2017-08-13T04:26:03.844Z,42.97
2017-08-13T04:28:32.157Z,33.40
2017-08-13T04:31:01.222Z,31.70
2017-08-13T04:33:29.551Z,26.20
2017-08-13T04:35:57.875Z,27.17
2017-08-13T04:38:26.213Z,29.03
2017-08-13T04:40:54.517Z,24.17
2017-08-13T04:43:23.616Z,28.13
2017-08-13T04:45:52.690Z,27.33
2017-08-13T04:48:21.006Z,36.60
2017-08-13T04:50:49.346Z,40.10
2017-08-13T04:53:17.649Z,34.30
2017-08-13T04:55:45.980Z,23.43
2017-08-13T04:58:14.317Z,23.30
2017-08-13T05:00:42.633Z,23.47
2017-08-13T05:03:10.986Z,24.90
2017-08-13T05:05:41.797Z,23.93
2017-08-13T05:08:10.110Z,24.50
2017-08-13T05:10:38.458Z,18.30
2017-08-13T05:13:06.796Z,18.37
2017-08-13T05:15:35.132Z,20.90
2017-08-13T05:18:03.472Z,28.50
2017-08-13T05:20:35.363Z,19.57
2017-08-13T05:23:04.864Z,24.50
2017-08-13T05:25:33.176Z,23.63
2017-08-13T05:28:01.474Z,23.97
2017-08-13T05:30:29.818Z,24.33
2017-08-13T05:32:58.892Z,28.50
2017-08-13T05:35:27.206Z,32.73
2017-08-13T05:37:56.313Z,30.60
2017-08-13T05:40:25.384Z,26.93
2017-08-13T05:42:53.733Z,24.07
2017-08-13T05:45:22.037Z,26.57
2017-08-13T05:47:50.372Z,26.13
2017-08-13T05:50:18.681Z,32.13
2017-08-13T05:52:47.022Z,30.97
2017-08-13T05:55:15.360Z,29.53
2017-08-13T05:57:44.462Z,28.87
2017-08-13T06:00:12.764Z,25.03
2017-08-13T06:02:41.837Z,24.20
2017-08-13T06:05:10.182Z,24.47
2017-08-13T06:07:38.526Z,22.47
2017-08-13T06:10:06.833Z,21.40
2017-08-13T06:12:35.945Z,20.13
2017-08-13T06:15:05.046Z,24.63
2017-08-13T06:17:34.399Z,22.33
2017-08-13T06:20:02.697Z,28.77
2017-08-13T06:22:31.377Z,26.90
2017-08-13T06:24:59.686Z,34.53
2017-08-13T06:27:27.995Z,33.60
2017-08-13T06:29:56.331Z,28.50
2017-08-13T06:32:24.672Z,25.57
2017-08-13T06:34:52.983Z,31.73
2017-08-13T06:37:21.293Z,45.13
2017-08-13T06:39:50.489Z,34.50
2017-08-13T06:42:19.613Z,29.63
2017-08-13T06:44:49.272Z,34.53
2017-08-13T06:47:17.581Z,38.20
2017-08-13T06:49:45.921Z,32.03
2017-08-13T06:52:14.268Z,32.03
2017-08-13T06:54:42.582Z,33.83
2017-08-13T06:57:10.929Z,30.50
2017-08-13T06:59:39.242Z,37.70
2017-08-13T07:02:07.578Z,32.83
2017-08-13T07:04:35.887Z,37.10
2017-08-13T07:07:04.338Z,32.27
2017-08-13T07:09:33.423Z,31.13
2017-08-13T07:12:01.771Z,28.00
2017-08-13T07:14:30.072Z,32.10
2017-08-13T07:16:59.602Z,25.77
2017-08-13T07:19:27.944Z,25.20
2017-08-13T07:21:56.265Z,28.03
2017-08-13T07:24:24.574Z,37.83
2017-08-13T07:26:52.905Z,35.37
2017-08-13T07:29:21.217Z,33.20
2017-08-13T07:31:49.566Z,25.60
2017-08-13T07:34:17.869Z,40.00
2017-08-13T07:36:46.934Z,27.97
2017-08-13T07:39:15.722Z,30.57
2017-08-13T07:41:44.061Z,31.90
2017-08-13T07:44:13.169Z,32.37
2017-08-13T07:46:41.512Z,27.47
2017-08-13T07:49:09.834Z,30.70
2017-08-13T07:51:38.135Z,26.13
2017-08-13T07:54:07.239Z,25.57
2017-08-13T07:56:36.953Z,25.03
2017-08-13T07:59:05.255Z,26.70
2017-08-13T08:01:34.363Z,35.70
2017-08-13T08:04:02.695Z,26.53
2017-08-13T08:06:31.041Z,26.27
2017-08-13T08:08:59.371Z,29.20
2017-08-13T08:11:27.707Z,30.20
2017-08-13T08:13:56.086Z,29.17
2017-08-13T08:16:24.429Z,30.10
2017-08-13T08:18:52.770Z,24.53
2017-08-13T08:21:21.106Z,20.80
2017-08-13T08:23:49.446Z,20.90
2017-08-13T08:26:17.768Z,15.20
2017-08-13T08:28:46.109Z,19.30
2017-08-13T08:31:14.424Z,24.43
2017-08-13T08:33:42.770Z,17.27
2017-08-13T08:36:11.076Z,19.30
2017-08-13T08:38:39.437Z,18.07
2017-08-13T08:41:07.747Z,12.70
2017-08-13T08:43:36.051Z,9.60
2017-08-13T08:49:04.011Z,7.63
2017-08-13T08:51:32.337Z,9.53
2017-08-13T08:54:00.667Z,9.00
2017-08-13T08:56:28.971Z,7.63
2017-08-13T08:58:57.302Z,6.43
2017-08-13T09:01:25.610Z,6.00
2017-08-13T09:03:53.913Z,7.43
2017-08-13T09:06:22.237Z,8.13
2017-08-13T09:08:50.572Z,6.33
2017-08-13T09:11:18.870Z,9.67
2017-08-13T09:13:47.169Z,10.60
2017-08-13T09:16:15.618Z,7.83
2017-08-13T09:18:43.922Z,8.33
2017-08-13T09:21:12.256Z,14.50
2017-08-13T09:23:40.560Z,11.10
2017-08-13T09:26:08.901Z,8.13
2017-08-13T09:28:37.201Z,13.17
2017-08-13T09:31:05.498Z,8.93
2017-08-13T09:33:33.828Z,7.17
2017-08-13T09:36:02.129Z,6.37
2017-08-13T09:38:30.424Z,5.73
2017-08-13T09:40:58.748Z,6.57
2017-08-13T09:43:27.069Z,6.50
2017-08-13T09:45:55.374Z,10.57
2017-08-13T09:48:23.707Z,5.80
2017-08-13T09:50:52.001Z,4.97
2017-08-13T09:53:20.302Z,7.80
2017-08-13T09:55:48.634Z,5.00
2017-08-13T09:58:16.936Z,5.20
2017-08-13T10:00:45.276Z,13.87
2017-08-13T10:03:13.613Z,6.03
2017-08-13T10:05:41.958Z,5.20
2017-08-13T10:08:10.274Z,4.43
2017-08-13T10:10:38.564Z,5.37
2017-08-13T10:13:07.245Z,5.90
2017-08-13T10:15:35.540Z,5.20
2017-08-13T10:18:06.433Z,5.87
2017-08-13T10:20:34.761Z,4.70
2017-08-13T10:23:05.396Z,4.80
2017-08-13T10:25:34.689Z,4.80
2017-08-13T10:28:02.987Z,5.70
2017-08-13T10:30:31.884Z,4.90
2017-08-13T10:33:00.208Z,4.27
2017-08-13T10:35:28.537Z,4.23
2017-08-13T10:37:56.857Z,4.07
2017-08-13T10:40:30.305Z,3.70
2017-08-13T10:42:59.360Z,4.10
2017-08-13T10:45:27.925Z,4.47
2017-08-13T10:47:56.259Z,4.10
2017-08-13T10:50:24.597Z,4.40
2017-08-13T10:52:52.894Z,3.53
2017-08-13T10:55:21.223Z,3.17
2017-08-13T10:57:49.544Z,4.53
2017-08-13T11:00:17.833Z,4.03
2017-08-13T11:02:46.165Z,11.23
2017-08-13T11:05:14.457Z,5.53
2017-08-13T11:07:42.788Z,3.27
2017-08-13T11:10:11.100Z,4.00
2017-08-13T11:12:39.417Z,3.50
2017-08-13T11:15:07.778Z,3.97
2017-08-13T11:17:36.121Z,3.70
2017-08-13T11:20:04.412Z,3.90
2017-08-13T11:22:32.715Z,4.50
2017-08-13T11:25:01.188Z,8.27
2017-08-13T11:27:29.488Z,5.87
2017-08-13T11:29:57.790Z,13.03
2017-08-13T11:32:26.131Z,4.47
2017-08-13T11:34:54.468Z,4.43
2017-08-13T11:37:22.758Z,3.93
2017-08-13T11:39:51.097Z,3.80
2017-08-13T11:42:19.388Z,3.67
2017-08-13T11:44:47.689Z,3.27
2017-08-13T11:47:16.026Z,5.20
2017-08-13T11:49:44.323Z,3.63
2017-08-13T11:52:12.841Z,3.57
2017-08-13T11:54:41.164Z,6.53
2017-08-13T11:57:15.792Z,3.93
2017-08-13T11:59:44.119Z,3.40
2017-08-13T12:02:12.420Z,2.87
2017-08-13T12:04:40.736Z,6.77
2017-08-13T12:07:09.144Z,3.13
2017-08-13T12:09:37.543Z,8.83
2017-08-13T12:12:05.844Z,3.37
2017-08-13T12:14:38.657Z,7.90
2017-08-13T12:17:06.945Z,8.20
2017-08-13T12:19:35.281Z,3.20
2017-08-13T12:22:08.723Z,2.80
2017-08-13T12:24:37.058Z,5.50
2017-08-13T12:27:06.830Z,2.33
2017-08-13T12:29:35.131Z,5.00
2017-08-13T12:32:03.438Z,2.80
2017-08-13T12:34:31.762Z,5.83
2017-08-13T12:37:00.088Z,6.73
2017-08-13T12:39:28.431Z,5.13
2017-08-13T12:41:56.882Z,2.23
2017-08-13T12:44:25.194Z,2.33
2017-08-13T12:46:53.528Z,1.60
2017-08-13T12:49:21.825Z,2.20
2017-08-13T12:51:50.149Z,2.53
2017-08-13T12:54:18.468Z,3.50
2017-08-13T12:56:46.768Z,3.93
2017-08-13T12:59:15.103Z,4.93
2017-08-13T13:01:43.409Z,4.77
2017-08-13T13:04:11.707Z,5.13
2017-08-13T13:06:41.170Z,5.67
2017-08-13T13:09:10.843Z,1.83
2017-08-13T13:11:39.158Z,1.37
2017-08-13T13:14:07.471Z,5.17
2017-08-13T13:16:35.793Z,2.90
2017-08-13T13:19:04.127Z,1.83
2017-08-13T13:21:32.429Z,1.40
2017-08-13T13:24:00.833Z,1.47
2017-08-13T13:26:29.176Z,1.60
2017-08-13T13:28:57.475Z,2.10
2017-08-13T13:31:25.803Z,1.73
2017-08-13T13:33:54.097Z,2.63
2017-08-13T13:36:22.430Z,5.63
2017-08-13T13:38:50.745Z,2.47
2017-08-13T13:41:19.833Z,2.07
2017-08-13T13:43:48.167Z,1.87
2017-08-13T13:46:16.507Z,2.33
2017-08-13T13:48:44.867Z,1.50
2017-08-13T13:51:13.225Z,1.60
2017-08-13T13:53:41.594Z,1.97
2017-08-13T13:56:09.926Z,2.30
2017-08-13T13:58:38.275Z,1.53
2017-08-13T14:01:06.577Z,1.73
2017-08-13T14:03:34.887Z,1.63
2017-08-13T14:06:03.209Z,1.40
2017-08-13T14:08:31.493Z,3.00
2017-08-13T14:10:59.846Z,1.80
2017-08-13T14:13:28.184Z,1.80
2017-08-13T14:15:57.331Z,2.20
2017-08-13T14:18:25.652Z,5.83
2017-08-13T14:20:53.952Z,4.63
2017-08-13T14:23:22.297Z,1.83
2017-08-13T14:25:56.297Z,1.63
2017-08-13T14:28:24.625Z,4.80
2017-08-13T14:30:52.925Z,1.73
2017-08-13T14:33:21.258Z,2.90
2017-08-13T14:35:49.561Z,1.20
2017-08-13T14:38:17.872Z,1.53
2017-08-13T14:40:46.204Z,2.90
2017-08-13T14:43:14.541Z,2.00
2017-08-13T14:45:42.842Z,6.93
2017-08-13T14:48:11.225Z,2.10
2017-08-13T14:50:39.553Z,1.70
2017-08-13T14:53:07.853Z,1.87
2017-08-13T14:55:36.184Z,2.50
2017-08-13T14:58:05.429Z,8.10
2017-08-13T15:00:34.296Z,1.80
2017-08-13T15:03:02.885Z,2.10
2017-08-13T15:05:31.213Z,2.93
2017-08-13T15:07:59.565Z,3.03
2017-08-13T15:10:27.908Z,1.90
2017-08-13T15:12:57.154Z,3.63
2017-08-13T15:15:25.482Z,3.63
2017-08-13T15:17:53.771Z,2.40
2017-08-13T15:20:22.064Z,10.50
2017-08-13T15:22:50.394Z,3.00
2017-08-13T15:25:20.149Z,4.20
2017-08-13T15:27:48.441Z,2.67
2017-08-13T15:30:16.752Z,2.80
2017-08-13T15:32:45.042Z,3.40
2017-08-13T15:35:14.349Z,4.30
2017-08-13T15:37:42.667Z,3.17
2017-08-13T15:40:10.969Z,4.17
2017-08-13T15:42:39.307Z,6.17
2017-08-13T15:45:07.599Z,8.43
2017-08-13T15:47:35.923Z,4.00
2017-08-13T15:50:04.228Z,3.00
2017-08-13T15:52:32.520Z,2.80
2017-08-13T15:55:00.872Z,3.47
2017-08-13T15:57:29.164Z,5.30
2017-08-13T15:59:57.452Z,4.00
2017-08-13T16:02:25.777Z,3.53
2017-08-13T16:04:54.091Z,3.77
2017-08-13T16:07:22.401Z,4.10
2017-08-13T16:09:50.705Z,3.50
2017-08-13T16:12:19.031Z,4.00
2017-08-13T16:14:47.376Z,7.97
2017-08-13T16:17:15.663Z,4.17
2017-08-13T16:19:44.000Z,4.50
2017-08-13T16:22:12.301Z,4.40
2017-08-13T16:24:40.615Z,4.93
2017-08-13T16:27:08.953Z,9.57
2017-08-13T16:29:37.248Z,5.97
2017-08-13T16:32:05.541Z,4.63
2017-08-13T16:34:33.853Z,5.07
2017-08-13T16:37:03.131Z,4.10
2017-08-13T16:39:31.420Z,17.87
2017-08-13T16:41:59.732Z,4.50
2017-08-13T16:44:28.020Z,5.70
2017-08-13T16:46:56.338Z,5.00
2017-08-13T16:49:24.656Z,5.17
2017-08-13T16:51:55.668Z,8.57
2017-08-13T16:54:23.972Z,4.60
2017-08-13T16:56:52.291Z,5.43
2017-08-13T16:59:20.588Z,5.40
2017-08-13T17:01:48.903Z,6.57
2017-08-13T17:04:17.204Z,6.07
2017-08-13T17:06:45.493Z,6.57
2017-08-13T17:09:13.832Z,8.80
2017-08-13T17:11:42.144Z,7.93
2017-08-13T17:14:10.644Z,11.20
2017-08-13T17:16:38.996Z,7.83
2017-08-13T17:19:07.283Z,8.23
2017-08-13T17:21:35.606Z,7.73
2017-08-13T17:24:03.891Z,8.87
2017-08-13T17:26:32.179Z,13.03
2017-08-13T17:29:00.505Z,8.67
2017-08-13T17:31:28.809Z,7.80
2017-08-13T17:33:57.104Z,7.90
2017-08-13T17:36:25.438Z,8.00
2017-08-13T17:38:53.728Z,9.67
2017-08-13T17:41:22.057Z,7.60
2017-08-13T17:43:50.340Z,6.50
2017-08-13T17:46:18.656Z,8.50
2017-08-13T17:48:47.001Z,6.97
2017-08-13T17:51:15.288Z,9.67
2017-08-13T17:53:43.592Z,8.90
2017-08-13T17:56:11.933Z,7.97
2017-08-13T17:58:40.239Z,8.60
2017-08-13T18:01:08.556Z,6.97
2017-08-13T18:03:39.936Z,11.10
2017-08-13T18:06:09.032Z,8.00
2017-08-13T18:08:37.335Z,11.77
2017-08-13T18:11:05.624Z,16.13
2017-08-13T18:13:33.975Z,16.93
2017-08-13T18:16:02.270Z,7.73
2017-08-13T18:18:30.560Z,9.27
2017-08-13T18:20:58.885Z,10.87
2017-08-13T18:23:27.195Z,10.40
2017-08-13T18:25:55.510Z,10.83
2017-08-13T18:28:23.814Z,11.60
2017-08-13T18:30:52.132Z,8.77
2017-08-13T18:33:20.428Z,8.73
2017-08-13T18:35:48.744Z,8.77
2017-08-13T18:38:17.045Z,10.37
2017-08-13T18:40:45.373Z,9.00
2017-08-13T18:43:13.660Z,11.33
2017-08-13T18:45:41.987Z,9.93
2017-08-13T18:48:10.328Z,10.90
2017-08-13T18:50:38.631Z,14.80
2017-08-13T18:53:06.963Z,11.80
2017-08-13T18:55:35.251Z,15.50
2017-08-13T18:58:03.585Z,16.37
2017-08-13T19:00:31.877Z,9.90
2017-08-13T19:03:00.169Z,11.63
2017-08-13T19:05:28.505Z,12.40
2017-08-13T19:07:56.832Z,12.73
2017-08-13T19:10:27.504Z,11.77
2017-08-13T19:12:55.801Z,11.93
2017-08-13T19:15:24.103Z,12.50
2017-08-13T19:17:52.439Z,12.50
2017-08-13T19:20:20.739Z,13.43
2017-08-13T19:22:49.296Z,18.53
2017-08-13T19:25:17.623Z,13.60
2017-08-13T19:27:45.924Z,15.77
2017-08-13T19:30:14.260Z,21.03
2017-08-13T19:32:42.576Z,16.23
2017-08-13T19:35:10.920Z,17.20
2017-08-13T19:37:39.232Z,16.67
2017-08-13T19:40:07.573Z,17.60
2017-08-13T19:42:35.888Z,14.87
2017-08-13T19:45:04.183Z,14.33
2017-08-13T19:47:32.508Z,16.53
2017-08-13T19:50:00.808Z,18.03
2017-08-13T19:52:29.142Z,19.70
2017-08-13T19:54:57.476Z,22.17
2017-08-13T19:57:25.782Z,19.00
2017-08-13T19:59:54.098Z,18.60
2017-08-13T20:02:22.437Z,27.03
2017-08-13T20:04:50.771Z,25.10
2017-08-13T20:07:19.078Z,20.90
2017-08-13T20:09:47.451Z,20.53
2017-08-13T20:12:15.802Z,18.53
2017-08-13T20:14:44.125Z,19.90
2017-08-13T20:17:12.504Z,18.53
2017-08-13T20:19:40.832Z,20.00
2017-08-13T20:22:09.175Z,27.03
2017-08-13T20:24:37.499Z,17.90
2017-08-13T20:27:05.809Z,30.70
2017-08-13T20:29:34.499Z,16.30
2017-08-13T20:32:02.828Z,16.03
2017-08-13T20:34:31.172Z,15.40
2017-08-13T20:36:59.511Z,18.27
2017-08-13T20:39:27.816Z,18.20
2017-08-13T20:41:56.152Z,17.87
2017-08-13T20:44:24.456Z,18.13
2017-08-13T20:46:52.824Z,24.57
2017-08-13T20:49:21.125Z,17.43
2017-08-13T20:51:49.460Z,14.73
2017-08-13T20:54:17.769Z,18.70
2017-08-13T20:56:46.063Z,21.67
2017-08-13T20:59:14.420Z,16.77
2017-08-13T21:01:42.745Z,15.77
2017-08-13T21:04:11.054Z,20.33
2017-08-13T21:06:39.410Z,18.17
2017-08-13T21:09:07.736Z,18.07
2017-08-13T21:11:36.068Z,16.20
2017-08-13T21:14:04.371Z,19.87
2017-08-13T21:16:32.673Z,15.00
2017-08-13T21:19:01.018Z,28.73
2017-08-13T21:21:29.350Z,18.43
2017-08-13T21:23:57.649Z,18.30
2017-08-13T21:26:25.955Z,23.67
2017-08-13T21:28:54.761Z,20.40
2017-08-13T21:31:23.072Z,22.10
2017-08-13T21:33:51.395Z,17.47
2017-08-13T21:36:19.694Z,20.30
2017-08-13T21:38:47.997Z,17.87
2017-08-13T21:41:16.340Z,19.90
2017-08-13T21:43:44.648Z,17.07
2017-08-13T21:46:12.989Z,18.43
2017-08-13T21:48:42.610Z,19.57
2017-08-13T21:51:12.341Z,18.67
2017-08-13T21:53:41.603Z,19.50
2017-08-13T21:56:09.902Z,21.50
2017-08-13T21:58:38.243Z,21.50
2017-08-13T22:01:06.540Z,23.90
2017-08-13T22:03:39.677Z,32.07
2017-08-13T22:06:07.974Z,25.50
2017-08-13T22:08:36.305Z,25.50
2017-08-13T22:11:04.628Z,20.07
2017-08-13T22:13:32.944Z,28.53
2017-08-13T22:16:01.274Z,24.77
2017-08-13T22:18:29.574Z,18.20
2017-08-13T22:20:57.906Z,22.27
2017-08-13T22:23:26.204Z,19.10
2017-08-13T22:25:54.504Z,29.20
2017-08-13T22:28:22.837Z,25.20
2017-08-13T22:30:51.124Z,20.27
2017-08-13T22:33:19.432Z,19.00
2017-08-13T22:35:47.756Z,22.10
2017-08-13T22:38:16.064Z,22.20
2017-08-13T22:40:44.368Z,18.43
2017-08-13T22:43:12.719Z,27.47
2017-08-13T22:45:41.112Z,18.20
2017-08-13T22:48:09.419Z,16.80
2017-08-13T22:50:37.716Z,23.13
2017-08-13T22:53:07.048Z,20.20
2017-08-13T22:55:35.343Z,19.00
2017-08-13T22:58:03.676Z,20.30
2017-08-13T23:00:32.027Z,23.03
2017-08-13T23:03:00.334Z,17.83
2017-08-13T23:05:28.660Z,15.80
2017-08-13T23:07:57.024Z,15.70
2017-08-13T23:10:25.350Z,20.83
2017-08-13T23:12:53.652Z,21.90
2017-08-13T23:15:21.956Z,18.17
2017-08-13T23:17:50.287Z,22.73
2017-08-13T23:20:18.587Z,26.00
2017-08-13T23:22:46.919Z,25.93
2017-08-13T23:25:15.229Z,25.03
2017-08-13T23:27:43.540Z,29.93
2017-08-13T23:30:11.875Z,30.07
2017-08-13T23:32:40.211Z,24.97
2017-08-13T23:35:08.526Z,22.30
2017-08-13T23:37:36.825Z,26.23
2017-08-13T23:40:05.156Z,21.10
2017-08-13T23:42:33.465Z,25.10
2017-08-13T23:45:01.784Z,28.80
2017-08-13T23:47:30.108Z,24.77
2017-08-13T23:49:58.435Z,28.87
2017-08-13T23:52:26.751Z,31.23
2017-08-13T23:54:55.089Z,25.20
2017-08-13T23:57:23.384Z,25.77
2017-08-13T23:59:51.684Z,29.33
